Погода Пелчана неделю

Великопольское воеводство, Польша

19 - 25 июля
  • 19июля
    Сегодня
    +15°
    +27°
    Небольшая облачность
    ВремяПогодаТемператураВлажностьДавлениеВетер, м/сВероятность осадков
    02:00Практически безоблачно+17°C88 %765 мм1.9 м/с2 %
    05:00Ясно и безоблачно+15°C94 %765 мм1.5 м/с2 %
    08:00Облачно с прояснениями+19°C82 %765 мм1.3 м/с2 %
    11:00Небольшая облачность+24°C56 %764 мм0.3 м/с2 %
    14:00Небольшая облачность+26°C47 %763 мм1.1 м/с2 %
    17:00Небольшая облачность+26°C45 %762 мм1.0 м/с2 %
    20:00Небольшая облачность+25°C63 %762 мм1.2 м/с2 %
    23:00Практически безоблачно+20°C71 %761 мм2.6 м/с2 %
  • 20июля
    Суббота
    +17°
    +29°
    Небольшая облачность
    ВремяПогодаТемператураВлажностьДавлениеВетер, м/сВероятность осадков
    02:00Облачно с прояснениями+17°C86 %761 мм1.7 м/с2 %
    05:00Облачно с прояснениями+16°C94 %760 мм1.8 м/с2 %
    08:00Облачно с прояснениями+20°C78 %760 мм1.0 м/с2 %
    11:00Облачно с прояснениями+26°C51 %759 мм0.3 м/с2 %
    14:00Небольшая облачность+27°C40 %758 мм0.9 м/с2 %
    17:00Практически безоблачно+28°C37 %757 мм1.8 м/с2 %
    20:00Ясно и безоблачно+26°C47 %756 мм3.5 м/с2 %
    23:00Ясно и безоблачно+22°C52 %756 мм3.2 м/с2 %
  • 21июля
    Воскресенье
    +18°
    +31°
    Ясно и безоблачно
    ВремяПогодаТемператураВлажностьДавлениеВетер, м/сВероятность осадков
    02:00Ясно и безоблачно+19°C59 %756 мм2.6 м/с2 %
    05:00Ясно и безоблачно+17°C72 %755 мм1.8 м/с2 %
    08:00Ясно и безоблачно+22°C67 %755 мм0.9 м/с2 %
    11:00Ясно и безоблачно+27°C43 %755 мм1.4 м/с2 %
    14:00Ясно и безоблачно+30°C35 %754 мм2.4 м/с2 %
    17:00Практически безоблачно+31°C32 %753 мм2.4 м/с2 %
    20:00Облачно с прояснениями+27°C50 %753 мм1.7 м/с3 %
    23:00Ясно и безоблачно+24°C51 %754 мм3.5 м/с3 %
  • 22июля
    Понедельник
    +14°
    +25°
    Пасмурно, дождь
    ВремяПогодаТемператураВлажностьДавлениеВетер, м/сВероятность осадков
    02:00Ясно и безоблачно+21°C63 %754 мм2.5 м/с12 %
    05:00Ясно и безоблачно+19°C69 %754 мм2.2 м/с25 %
    08:00Небольшая облачность+22°C63 %755 мм1.1 м/с34 %
    11:00Пасмурно, небольшой дождь+25°C55 %755 мм3.3 м/с52 %
    14:00Пасмурно, дождь+20°C88 %756 мм2.7 м/с54 %
    17:00Пасмурно, ливень+21°C84 %757 мм3.5 м/с55 %
    20:00Практически безоблачно+21°C86 %758 мм3.3 м/с43 %
    23:00Небольшая облачность+19°C91 %759 мм2.8 м/с26 %
  • 23июля
    Вторник
    +14°
    +24°
    Ясно и безоблачно
    ВремяПогодаТемператураВлажностьДавлениеВетер, м/сВероятность осадков
    02:00Практически безоблачно+17°C88 %760 мм3.3 м/с20 %
    05:00Ясно и безоблачно+15°C82 %760 мм2.5 м/с22 %
    08:00Ясно и безоблачно+18°C80 %761 мм1.9 м/с22 %
    11:00Ясно и безоблачно+21°C57 %761 мм2.2 м/с26 %
    14:00Ясно и безоблачно+23°C45 %760 мм2.4 м/с29 %
    17:00Ясно и безоблачно+24°C44 %759 мм1.9 м/с31 %
    20:00Ясно и безоблачно+22°C61 %759 мм0.8 м/с32 %
    23:00Ясно и безоблачно+18°C73 %759 мм1.5 м/с27 %
Мы используем cookies
Соглашаюсь